createdAt,value
2018-09-15T00:00:17.788Z,101715.31
2018-09-15T00:02:46.685Z,101714.93
2018-09-15T00:05:15.010Z,101710.66
2018-09-15T00:07:42.759Z,101714.72
2018-09-15T00:10:11.667Z,101701.05
2018-09-15T00:12:39.415Z,101702.33
2018-09-15T00:15:08.318Z,101700.79
2018-09-15T00:17:36.641Z,101704.83
2018-09-15T00:20:04.971Z,101700.21
2018-09-15T00:22:33.307Z,101700.89
2018-09-15T00:25:01.635Z,101691.22
2018-09-15T00:27:29.967Z,101693.73
2018-09-15T00:29:58.298Z,101685.43
2018-09-15T00:32:26.620Z,101679.23
2018-09-15T00:34:54.949Z,101677.97
2018-09-15T00:37:23.277Z,101676.27
2018-09-15T00:39:51.603Z,101677.62
2018-09-15T00:42:19.930Z,101679.09
2018-09-15T00:44:47.661Z,101670.64
2018-09-15T00:47:16.561Z,101668.66
2018-09-15T00:49:44.871Z,101669.03
2018-09-15T00:52:13.195Z,101666.81
2018-09-15T00:54:41.525Z,101659.23
2018-09-15T00:57:09.837Z,101660.33
2018-09-15T00:59:38.159Z,101660.98
2018-09-15T01:02:06.481Z,101658.72
2018-09-15T01:04:34.801Z,101656.78
2018-09-15T01:07:02.544Z,101655.78
2018-09-15T01:09:31.444Z,101650.37
2018-09-15T01:11:59.765Z,101643.30
2018-09-15T01:14:28.804Z,101639.52
2018-09-15T01:16:57.046Z,101643.33
2018-09-15T01:19:25.394Z,101643.81
2018-09-15T01:21:53.114Z,101633.34
2018-09-15T01:24:22.014Z,101639.09
2018-09-15T01:26:50.338Z,101636.93
2018-09-15T01:29:18.657Z,101644.50
2018-09-15T01:31:46.978Z,101641.08
2018-09-15T01:34:15.301Z,101634.88
2018-09-15T01:36:43.044Z,101635.80
2018-09-15T01:39:11.944Z,101628.89
2018-09-15T01:41:40.262Z,101624.34
2018-09-15T01:44:08.586Z,101624.72
2018-09-15T01:46:36.390Z,101627.78
2018-09-15T01:49:04.716Z,101619.25
2018-09-15T01:51:33.037Z,101616.50
2018-09-15T01:54:02.116Z,101615.27
2018-09-15T01:56:30.435Z,101612.41
2018-09-15T01:58:58.756Z,101602.95
2018-09-15T02:01:26.494Z,101604.47
2018-09-15T02:03:55.389Z,101606.16
2018-09-15T02:06:23.713Z,101603.93
2018-09-15T02:08:52.025Z,101601.62
2018-09-15T02:11:20.346Z,101597.05
2018-09-15T02:13:48.684Z,101599.44
2018-09-15T02:16:17.006Z,101593.18
2018-09-15T02:18:45.321Z,101588.74
2018-09-15T02:21:13.058Z,101583.31
2018-09-15T02:23:41.960Z,101578.77
2018-09-15T02:26:10.280Z,101569.41
2018-09-15T02:28:38.603Z,101572.58
2018-09-15T02:31:06.925Z,101573.52
2018-09-15T02:33:35.247Z,101576.33
2018-09-15T02:36:03.570Z,101574.44
2018-09-15T02:38:31.889Z,101576.65
2018-09-15T02:41:00.439Z,101570.44
2018-09-15T02:43:28.765Z,101574.02
2018-09-15T02:45:56.517Z,101569.55
2018-09-15T02:48:26.472Z,101559.94
2018-09-15T02:50:53.483Z,101565.01
2018-09-15T02:53:22.381Z,101564.39
2018-09-15T02:55:50.126Z,101563.28
2018-09-15T02:58:19.027Z,101559.25
2018-09-15T03:00:47.341Z,101566.23
2018-09-15T03:03:16.255Z,101568.66
2018-09-15T03:05:44.576Z,101562.11
2018-09-15T03:08:12.902Z,101559.55
2018-09-15T03:10:41.268Z,101552.04
2018-09-15T03:13:09.860Z,101552.23
2018-09-15T03:15:38.181Z,101554.48
2018-09-15T03:18:07.409Z,101548.51
2018-09-15T03:20:34.966Z,101555.94
2018-09-15T03:23:03.469Z,101551.69
2018-09-15T03:25:31.789Z,101547.22
2018-09-15T03:28:00.113Z,101545.75
2018-09-15T03:30:28.441Z,101543.44
2018-09-15T03:32:57.246Z,101541.63
2018-09-15T03:35:25.569Z,101545.22
2018-09-15T03:37:53.895Z,101547.16
2018-09-15T03:40:22.386Z,101550.71
2018-09-15T03:42:50.140Z,101549.19
2018-09-15T03:45:19.243Z,101542.15
2018-09-15T03:47:46.997Z,101547.86
2018-09-15T03:50:16.112Z,101553.75
2018-09-15T03:52:44.443Z,101556.92
2018-09-15T03:55:12.393Z,101556.56
2018-09-15T03:57:41.307Z,101557.33
2018-09-15T04:00:09.641Z,101558.56
2018-09-15T04:02:37.985Z,101556.50
2018-09-15T04:05:06.323Z,101553.34
2018-09-15T04:07:34.657Z,101548.57
2018-09-15T04:10:02.987Z,101550.41
2018-09-15T04:12:31.321Z,101548.37
2018-09-15T04:15:00.119Z,101549.78
2018-09-15T04:17:27.879Z,101554.12
2018-09-15T04:19:56.338Z,101547.50
2018-09-15T04:22:25.121Z,101548.67
2018-09-15T04:24:52.879Z,101549.15
2018-09-15T04:27:21.205Z,101548.84
2018-09-15T04:29:49.543Z,101551.30
2018-09-15T04:32:17.878Z,101550.28
2018-09-15T04:34:46.789Z,101542.33
2018-09-15T04:37:15.238Z,101536.62
2018-09-15T04:39:43.598Z,101537.30
2018-09-15T04:42:12.409Z,101536.70
2018-09-15T04:44:40.759Z,101536.61
2018-09-15T04:47:09.092Z,101536.80
2018-09-15T04:49:37.430Z,101538.08
2018-09-15T04:52:05.765Z,101533.45
2018-09-15T04:54:34.091Z,101541.47
2018-09-15T04:57:02.428Z,101539.78
2018-09-15T04:59:30.178Z,101539.08
2018-09-15T05:01:58.508Z,101533.05
2018-09-15T05:04:26.845Z,101540.30
2018-09-15T05:06:55.754Z,101534.13
2018-09-15T05:11:52.416Z,101535.31
2018-09-15T05:14:20.750Z,101536.95
2018-09-15T05:16:49.079Z,101541.52
2018-09-15T05:19:16.831Z,101541.39
2018-09-15T05:21:45.744Z,101543.39
2018-09-15T05:24:14.080Z,101550.73
2018-09-15T05:26:41.830Z,101553.34
2018-09-15T05:29:10.748Z,101554.08
2018-09-15T05:31:38.864Z,101555.95
2018-09-15T05:34:07.411Z,101555.57
2018-09-15T05:36:35.162Z,101556.55
2018-09-15T05:39:04.076Z,101561.58
2018-09-15T05:41:32.409Z,101564.45
2018-09-15T05:44:00.186Z,101566.80
2018-09-15T05:46:29.071Z,101565.19
2018-09-15T05:48:57.455Z,101554.39
2018-09-15T05:51:25.205Z,101555.11
2018-09-15T05:53:53.590Z,101562.36
2018-09-15T05:56:21.943Z,101563.75
2018-09-15T05:58:50.861Z,101556.73
2018-09-15T06:01:19.187Z,101553.13
2018-09-15T06:03:47.520Z,101553.76
2018-09-15T06:06:15.850Z,101553.61
2018-09-15T06:08:43.601Z,101555.41
2018-09-15T06:11:12.514Z,101563.23
2018-09-15T06:13:40.305Z,101560.75
2018-09-15T06:16:09.181Z,101566.18
2018-09-15T06:18:36.929Z,101568.06
2018-09-15T06:21:05.891Z,101568.66
2018-09-15T06:23:33.641Z,101563.23
2018-09-15T06:26:02.655Z,101565.39
2018-09-15T06:28:30.995Z,101563.58
2018-09-15T06:30:59.360Z,101563.47
2018-09-15T06:33:27.667Z,101561.89
2018-09-15T06:35:55.418Z,101562.25
2018-09-15T06:38:24.336Z,101559.33
2018-09-15T06:40:52.666Z,101558.50
2018-09-15T06:43:20.422Z,101563.83
2018-09-15T06:45:48.833Z,101566.88
2018-09-15T06:48:17.111Z,101566.39
2018-09-15T06:50:45.441Z,101565.48
2018-09-15T06:53:14.362Z,101563.06
2018-09-15T06:55:42.699Z,101565.68
2018-09-15T06:58:11.029Z,101565.72
2018-09-15T07:00:39.413Z,101561.99
2018-09-15T07:03:07.118Z,101560.78
2018-09-15T07:05:36.612Z,101562.16
2018-09-15T07:08:04.949Z,101561.44
2018-09-15T07:10:33.282Z,101568.52
2018-09-15T07:13:01.084Z,101566.61
2018-09-15T07:15:29.951Z,101564.55
2018-09-15T07:17:57.709Z,101560.14
2018-09-15T07:20:26.041Z,101558.66
2018-09-15T07:22:54.381Z,101560.58
2018-09-15T07:25:23.293Z,101560.20
2018-09-15T07:27:51.046Z,101554.09
2018-09-15T07:30:19.377Z,101557.10
2018-09-15T07:32:48.296Z,101557.59
2018-09-15T07:35:16.630Z,101556.70
2018-09-15T07:37:45.036Z,101559.27
2018-09-15T07:40:12.836Z,101556.23
2018-09-15T07:42:41.626Z,101551.80
2018-09-15T07:45:09.378Z,101555.05
2018-09-15T07:47:38.291Z,101553.11
2018-09-15T07:50:06.637Z,101552.25
2018-09-15T07:52:34.979Z,101549.06
2018-09-15T07:55:02.741Z,101554.29
2018-09-15T07:57:31.803Z,101554.20
2018-09-15T08:00:00.058Z,101553.11
2018-09-15T08:02:28.390Z,101555.45
2018-09-15T08:04:56.136Z,101550.47
2018-09-15T08:07:25.055Z,101546.39
2018-09-15T08:09:52.814Z,101545.58
2018-09-15T08:12:21.718Z,101550.63
2018-09-15T08:14:50.172Z,101553.85
2018-09-15T08:17:18.515Z,101554.29
2018-09-15T08:19:47.343Z,101551.65
2018-09-15T08:22:15.094Z,101558.67
2018-09-15T08:24:43.424Z,101560.30
2018-09-15T08:27:12.337Z,101551.08
2018-09-15T08:29:40.094Z,101542.34
2018-09-15T08:32:09.203Z,101547.30
2018-09-15T08:34:37.001Z,101542.33
2018-09-15T08:37:05.816Z,101542.09
2018-09-15T08:39:34.161Z,101545.00
2018-09-15T08:42:01.916Z,101546.45
2018-09-15T08:44:30.829Z,101547.49
2018-09-15T08:46:59.534Z,101544.82
2018-09-15T08:49:27.875Z,101557.92
2018-09-15T08:51:55.626Z,101545.45
2018-09-15T08:54:24.094Z,101554.70
2018-09-15T08:56:52.288Z,101544.50
2018-09-15T08:59:20.912Z,101553.67
2018-09-15T09:01:49.528Z,101548.35
2018-09-15T09:04:17.853Z,101551.97
2018-09-15T09:06:45.602Z,101552.22
2018-09-15T09:09:14.502Z,101552.76
2018-09-15T09:11:42.837Z,101541.87
2018-09-15T09:14:11.048Z,101542.06
2018-09-15T09:16:39.509Z,101536.05
2018-09-15T09:19:07.857Z,101536.59
2018-09-15T09:21:36.789Z,101535.97
2018-09-15T09:24:04.537Z,101531.02
2018-09-15T09:26:32.942Z,101539.05
2018-09-15T09:29:01.222Z,101529.05
2018-09-15T09:31:30.114Z,101525.88
2018-09-15T09:33:58.442Z,101524.59
2018-09-15T09:36:26.774Z,101529.92
2018-09-15T09:38:55.110Z,101524.80
2018-09-15T09:41:22.908Z,101528.70
2018-09-15T09:43:51.194Z,101532.92
2018-09-15T09:46:20.138Z,101533.06
2018-09-15T09:48:48.469Z,101524.11
2018-09-15T09:51:16.803Z,101530.59
2018-09-15T09:53:45.134Z,101533.44
2018-09-15T09:56:13.463Z,101530.86
2018-09-15T09:58:41.868Z,101537.28
2018-09-15T10:01:09.626Z,101527.17
2018-09-15T10:03:37.949Z,101531.69
2018-09-15T10:06:06.276Z,101533.27
2018-09-15T10:08:34.606Z,101529.58
2018-09-15T10:11:02.947Z,101532.93
2018-09-15T10:13:31.848Z,101529.31
2018-09-15T10:16:00.220Z,101527.47
2018-09-15T10:18:27.938Z,101538.48
2018-09-15T10:20:56.278Z,101526.73
2018-09-15T10:23:24.610Z,101531.19
2018-09-15T10:25:53.530Z,101531.31
2018-09-15T10:28:22.114Z,101525.72
2018-09-15T10:30:51.088Z,101530.06
2018-09-15T10:33:20.217Z,101540.20
2018-09-15T10:35:48.617Z,101532.07
2018-09-15T10:38:16.946Z,101535.84
2018-09-15T10:40:45.323Z,101538.80
2018-09-15T10:43:13.645Z,101536.89
2018-09-15T10:45:42.044Z,101536.93
2018-09-15T10:48:10.407Z,101532.28
2018-09-15T10:50:38.199Z,101530.20
2018-09-15T10:53:07.093Z,101530.10
2018-09-15T10:55:36.185Z,101527.45
2018-09-15T10:58:04.521Z,101512.16
2018-09-15T11:00:32.867Z,101508.77
2018-09-15T11:03:01.177Z,101521.80
2018-09-15T11:05:29.501Z,101523.00
2018-09-15T11:07:57.865Z,101522.27
2018-09-15T11:10:26.317Z,101523.33
2018-09-15T11:12:54.803Z,101538.25
2018-09-15T11:15:23.127Z,101527.51
2018-09-15T11:17:51.564Z,101533.87
2018-09-15T11:20:19.330Z,101529.31
2018-09-15T11:22:49.224Z,101528.92
2018-09-15T11:25:17.424Z,101523.66
2018-09-15T11:27:46.371Z,101529.81
2018-09-15T11:30:14.710Z,101528.72
2018-09-15T11:32:42.469Z,101519.67
2018-09-15T11:35:11.368Z,101517.08
2018-09-15T11:37:39.689Z,101520.94
2018-09-15T11:40:08.622Z,101529.75
2018-09-15T11:42:36.387Z,101526.79
2018-09-15T11:45:05.407Z,101535.28
2018-09-15T11:47:46.198Z,101534.36
2018-09-15T11:50:15.063Z,101537.31
2018-09-15T11:52:43.195Z,101528.62
2018-09-15T11:55:11.496Z,101526.68
2018-09-15T11:57:40.097Z,101536.97
2018-09-15T12:00:08.546Z,101546.92
2018-09-15T12:02:37.809Z,101547.67
2018-09-15T12:05:06.798Z,101554.94
2018-09-15T12:07:35.189Z,101548.84
2018-09-15T12:10:02.927Z,101566.65
2018-09-15T12:12:31.870Z,101555.30
2018-09-15T12:14:59.775Z,101569.83
2018-09-15T12:17:28.541Z,101565.22
2018-09-15T12:19:56.904Z,101563.73
2018-09-15T12:22:25.440Z,101547.09
2018-09-15T12:24:53.777Z,101552.91
2018-09-15T12:27:22.108Z,101544.34
2018-09-15T12:29:50.001Z,101562.52
2018-09-15T12:32:19.598Z,101552.48
2018-09-15T12:34:47.927Z,101557.93
2018-09-15T12:37:15.681Z,101560.19
2018-09-15T12:39:44.717Z,101548.37
2018-09-15T12:42:13.042Z,101563.70
2018-09-15T12:44:40.787Z,101544.03
2018-09-15T12:47:09.694Z,101553.94
2018-09-15T12:49:38.237Z,101554.70
2018-09-15T12:52:06.864Z,101554.94
2018-09-15T12:54:35.161Z,101553.55
2018-09-15T12:57:03.482Z,101550.95
2018-09-15T12:59:31.844Z,101559.09
2018-09-15T13:02:00.232Z,101563.27
2018-09-15T13:04:29.103Z,101564.16
2018-09-15T13:06:57.459Z,101555.28
2018-09-15T13:09:25.796Z,101551.72
2018-09-15T13:11:58.568Z,101549.12
2018-09-15T13:14:33.896Z,101552.66
2018-09-15T13:17:02.533Z,101570.46
2018-09-15T13:19:30.878Z,101573.16
2018-09-15T13:21:59.216Z,101569.55
2018-09-15T13:24:27.547Z,101571.69
2018-09-15T13:26:56.502Z,101565.35
2018-09-15T13:29:24.898Z,101573.91
2018-09-15T13:31:53.156Z,101588.55
2018-09-15T13:34:21.477Z,101597.31
2018-09-15T13:36:49.218Z,101593.50
2018-09-15T13:39:18.123Z,101601.95
2018-09-15T13:41:45.967Z,101604.36
2018-09-15T13:44:14.322Z,101627.25
2018-09-15T13:46:43.297Z,101622.69
2018-09-15T13:49:11.560Z,101627.72
2018-09-15T13:51:39.881Z,101640.81
2018-09-15T13:54:08.113Z,101646.92
2018-09-15T13:56:36.602Z,101659.72
2018-09-15T13:59:05.337Z,101662.45
2018-09-15T14:01:33.693Z,101664.64
2018-09-15T14:04:02.017Z,101667.73
2018-09-15T14:06:30.339Z,101666.78
2018-09-15T14:08:58.087Z,101667.37
2018-09-15T14:11:27.061Z,101665.34
2018-09-15T14:13:55.401Z,101653.75
2018-09-15T14:16:23.808Z,101663.20
2018-09-15T14:18:51.503Z,101672.00
2018-09-15T14:21:21.027Z,101661.05
2018-09-15T14:23:49.561Z,101666.44
2018-09-15T14:26:17.683Z,101664.72
2018-09-15T14:28:46.003Z,101673.98
2018-09-15T14:31:14.329Z,101673.00
2018-09-15T14:33:42.687Z,101664.95
2018-09-15T14:36:11.010Z,101671.82
2018-09-15T14:38:39.372Z,101676.19
2018-09-15T14:41:07.681Z,101672.20
2018-09-15T14:43:36.079Z,101673.66
2018-09-15T14:46:04.461Z,101675.84
2018-09-15T14:48:32.845Z,101674.34
2018-09-15T14:51:01.163Z,101676.79
2018-09-15T14:53:30.415Z,101673.23
2018-09-15T14:55:59.489Z,101673.51
2018-09-15T14:58:27.833Z,101670.72
2018-09-15T15:00:55.584Z,101669.35
2018-09-15T15:03:23.908Z,101665.89
2018-09-15T15:05:52.832Z,101669.30
2018-09-15T15:08:21.160Z,101673.53
2018-09-15T15:10:49.512Z,101669.22
2018-09-15T15:13:17.934Z,101679.58
2018-09-15T15:15:46.262Z,101676.10
2018-09-15T15:18:14.708Z,101673.27
2018-09-15T15:20:42.455Z,101677.64
2018-09-15T15:23:11.361Z,101687.33
2018-09-15T15:25:39.788Z,101685.86
2018-09-15T15:28:08.225Z,101690.34
2018-09-15T15:30:36.019Z,101690.02
2018-09-15T15:33:04.918Z,101704.59
2018-09-15T15:35:33.265Z,101704.98
2018-09-15T15:38:01.745Z,101722.64
2018-09-15T15:40:29.648Z,101708.42
2018-09-15T15:42:57.984Z,101704.05
2018-09-15T15:45:26.890Z,101698.67
2018-09-15T15:47:55.228Z,101711.58
2018-09-15T15:50:23.005Z,101711.46
2018-09-15T15:52:51.348Z,101716.17
2018-09-15T15:55:20.908Z,101713.25
2018-09-15T15:57:49.217Z,101727.05
2018-09-15T16:00:16.960Z,101719.75
2018-09-15T16:02:45.955Z,101735.30
2018-09-15T16:05:14.274Z,101716.50
2018-09-15T16:07:42.626Z,101708.98
2018-09-15T16:10:10.938Z,101715.77
2018-09-15T16:12:38.817Z,101717.13
2018-09-15T16:15:07.728Z,101716.02
2018-09-15T16:17:36.058Z,101712.33
2018-09-15T16:20:04.520Z,101709.47
2018-09-15T16:22:32.842Z,101711.86
2018-09-15T16:25:01.282Z,101714.76
2018-09-15T16:27:29.024Z,101722.89
2018-09-15T16:29:57.982Z,101721.43
2018-09-15T16:32:27.352Z,101720.16
2018-09-15T16:34:55.785Z,101733.77
2018-09-15T16:37:24.878Z,101732.23
2018-09-15T16:39:53.198Z,101730.30
2018-09-15T16:42:21.553Z,101738.52
2018-09-15T16:44:49.302Z,101739.88
2018-09-15T16:47:17.637Z,101739.64
2018-09-15T16:49:46.614Z,101735.14
2018-09-15T16:52:14.991Z,101754.02
2018-09-15T16:54:45.998Z,101753.08
2018-09-15T16:57:15.102Z,101755.45
2018-09-15T16:59:43.430Z,101771.14
2018-09-15T17:02:11.766Z,101759.72
2018-09-15T17:04:40.094Z,101772.98
2018-09-15T17:07:09.093Z,101765.34
2018-09-15T17:09:38.784Z,101760.56
2018-09-15T17:12:07.133Z,101773.38
2018-09-15T17:14:49.678Z,101773.91
2018-09-15T17:17:19.301Z,101762.08
2018-09-15T17:19:47.875Z,101775.95
2018-09-15T17:22:16.203Z,101766.22
2018-09-15T17:24:44.637Z,101767.59
2018-09-15T17:27:13.022Z,101771.00
2018-09-15T17:29:41.395Z,101781.67
2018-09-15T17:32:10.346Z,101785.38
2018-09-15T17:34:39.647Z,101783.46
2018-09-15T17:37:08.045Z,101774.92
2018-09-15T17:39:36.406Z,101782.31
2018-09-15T17:42:04.845Z,101773.20
2018-09-15T17:44:33.182Z,101777.98
2018-09-15T17:47:08.940Z,101778.83
2018-09-15T17:49:36.743Z,101781.91
2018-09-15T17:52:05.670Z,101778.52
2018-09-15T17:54:34.009Z,101781.95
2018-09-15T17:57:02.329Z,101781.59
2018-09-15T17:59:31.229Z,101777.19
2018-09-15T18:01:59.566Z,101779.67
2018-09-15T18:04:27.948Z,101780.86
2018-09-15T18:06:56.301Z,101782.54
2018-09-15T18:09:24.656Z,101782.37
2018-09-15T18:11:53.256Z,101781.19
2018-09-15T18:14:22.248Z,101779.88
2018-09-15T18:16:50.003Z,101781.81
2018-09-15T18:19:18.980Z,101788.05
2018-09-15T18:21:47.941Z,101792.70
2018-09-15T18:24:19.448Z,101788.90
2018-09-15T18:26:48.391Z,101798.97
2018-09-15T18:29:16.724Z,101797.64
2018-09-15T18:31:45.062Z,101795.67
2018-09-15T18:34:12.811Z,101794.08
2018-09-15T18:36:41.902Z,101791.86
2018-09-15T18:39:10.081Z,101786.70
2018-09-15T18:41:38.412Z,101787.06
2018-09-15T18:44:06.270Z,101794.33
2018-09-15T18:46:34.620Z,101794.81
2018-09-15T18:49:03.536Z,101796.23
2018-09-15T18:51:31.913Z,101804.67
2018-09-15T18:54:00.263Z,101799.80
2018-09-15T18:56:29.653Z,101806.85
2018-09-15T18:58:57.930Z,101812.14
2018-09-15T19:01:26.447Z,101815.20
2018-09-15T19:03:54.784Z,101806.28
2018-09-15T19:06:23.203Z,101813.74
2018-09-15T19:08:51.683Z,101815.26
2018-09-15T19:11:20.164Z,101812.57
2018-09-15T19:13:47.937Z,101811.80
2018-09-15T19:16:16.848Z,101810.86
2018-09-15T19:18:45.184Z,101814.64
2018-09-15T19:21:13.515Z,101821.00
2018-09-15T19:23:41.845Z,101822.17
2018-09-15T19:26:10.169Z,101814.20
2018-09-15T19:28:38.510Z,101819.37
2018-09-15T19:31:06.866Z,101825.02
2018-09-15T19:33:35.241Z,101813.42
2018-09-15T19:36:03.578Z,101827.53
2018-09-15T19:38:31.913Z,101828.67
2018-09-15T19:41:00.245Z,101826.49
2018-09-15T19:43:28.567Z,101824.61
2018-09-15T19:45:56.314Z,101823.23
2018-09-15T19:48:24.641Z,101834.16
2018-09-15T19:50:54.099Z,101839.91
2018-09-15T19:53:22.452Z,101831.52
2018-09-15T19:55:50.851Z,101840.89
2018-09-15T19:58:19.210Z,101841.90
2018-09-15T20:00:47.646Z,101842.59
2018-09-15T20:03:15.969Z,101843.48
2018-09-15T20:05:44.285Z,101843.96
2018-09-15T20:08:12.735Z,101852.45
2018-09-15T20:10:41.138Z,101846.67
2018-09-15T20:13:09.600Z,101857.19
2018-09-15T20:15:37.392Z,101862.83
2018-09-15T20:18:05.208Z,101863.84
2018-09-15T20:20:33.660Z,101854.56
2018-09-15T20:23:01.403Z,101858.59
2018-09-15T20:25:29.735Z,101855.64
2018-09-15T20:27:58.647Z,101861.03
2018-09-15T20:30:27.118Z,101863.59
2018-09-15T20:32:55.475Z,101861.15
2018-09-15T20:35:23.830Z,101858.45
2018-09-15T20:37:52.154Z,101858.70
2018-09-15T20:40:20.478Z,101860.91
2018-09-15T20:42:48.798Z,101859.28
2018-09-15T20:45:25.070Z,101858.44
2018-09-15T20:47:54.119Z,101864.84
2018-09-15T20:50:22.453Z,101861.80
2018-09-15T20:52:50.820Z,101860.21
2018-09-15T20:55:19.214Z,101860.97
2018-09-15T20:57:47.540Z,101865.41
2018-09-15T21:00:15.285Z,101865.50
2018-09-15T21:02:44.184Z,101871.83
2018-09-15T21:05:12.506Z,101870.05
2018-09-15T21:07:40.837Z,101867.44
2018-09-15T21:10:15.881Z,101868.54
2018-09-15T21:12:44.789Z,101871.98
2018-09-15T21:15:13.122Z,101874.11
2018-09-15T21:17:41.445Z,101877.04
2018-09-15T21:20:09.778Z,101876.11
2018-09-15T21:22:37.525Z,101884.53
2018-09-15T21:25:06.441Z,101886.91
2018-09-15T21:27:40.049Z,101888.83
2018-09-15T21:30:08.966Z,101889.27
2018-09-15T21:32:37.304Z,101890.22
2018-09-15T21:35:05.049Z,101894.03
2018-09-15T21:37:34.032Z,101894.52
2018-09-15T21:40:02.302Z,101902.52
2018-09-15T21:42:30.837Z,101894.52
2018-09-15T21:44:59.167Z,101905.23
2018-09-15T21:47:26.926Z,101900.94
2018-09-15T21:49:55.259Z,101906.64
2018-09-15T21:52:24.169Z,101911.50
2018-09-15T21:54:52.499Z,101908.40
2018-09-15T21:57:20.827Z,101909.56
2018-09-15T21:59:49.156Z,101905.14
2018-09-15T22:02:17.677Z,101911.05
2018-09-15T22:04:45.424Z,101909.48
2018-09-15T22:07:14.327Z,101912.33
2018-09-15T22:09:42.742Z,101913.16
2018-09-15T22:12:11.429Z,101909.17
2018-09-15T22:14:39.771Z,101919.62
2018-09-15T22:17:08.095Z,101914.60
2018-09-15T22:19:36.428Z,101911.95
2018-09-15T22:22:04.799Z,101922.02
2018-09-15T22:24:32.496Z,101926.30
2018-09-15T22:27:00.909Z,101933.20
2018-09-15T22:29:29.822Z,101936.75
2018-09-15T22:31:57.684Z,101940.88
2018-09-15T22:34:27.142Z,101945.70
2018-09-15T22:36:55.528Z,101942.70
2018-09-15T22:39:23.897Z,101944.45
2018-09-15T22:41:52.394Z,101956.30
2018-09-15T22:44:20.728Z,101957.71
2018-09-15T22:46:49.063Z,101960.00
2018-09-15T22:49:17.398Z,101963.20
2018-09-15T22:51:46.480Z,101967.09
2018-09-15T22:54:14.861Z,101970.48
2018-09-15T22:56:44.147Z,101977.13
2018-09-15T22:59:11.904Z,101978.83
2018-09-15T23:01:40.867Z,101986.73
2018-09-15T23:04:08.616Z,101985.23
2018-09-15T23:06:36.946Z,101987.75
2018-09-15T23:09:05.859Z,101994.98
2018-09-15T23:11:34.209Z,101995.73
2018-09-15T23:14:02.551Z,101993.05
2018-09-15T23:16:30.305Z,101996.11
2018-09-15T23:18:58.645Z,101993.79
2018-09-15T23:21:27.556Z,101993.73
2018-09-15T23:23:55.894Z,101992.73
2018-09-15T23:26:23.652Z,102001.56
2018-09-15T23:28:52.013Z,102001.53
2018-09-15T23:31:20.912Z,101995.82
2018-09-15T23:33:48.928Z,101990.95
2018-09-15T23:36:17.885Z,101990.17
2018-09-15T23:38:45.644Z,101993.95
2018-09-15T23:41:14.555Z,101991.25
2018-09-15T23:43:42.890Z,102000.39
2018-09-15T23:46:10.651Z,102005.64
2018-09-15T23:48:38.988Z,102009.18
2018-09-15T23:51:07.316Z,102014.40
2018-09-15T23:53:35.655Z,102015.98
2018-09-15T23:56:04.567Z,102010.79
2018-09-15T23:58:32.900Z,102020.48
